sensor_id;sensor_type;location;lat;lon;timestamp;P1;durP1;ratioP1;P2;durP2;ratioP2
59016;SDS011;44800;55.600;38.134;2023-03-14T00:01:07;2.03;;;0.98;;
59016;SDS011;44800;55.600;38.134;2023-03-14T00:03:37;6.22;;;2.45;;
59016;SDS011;44800;55.600;38.134;2023-03-14T00:06:06;3.67;;;1.40;;
59016;SDS011;44800;55.600;38.134;2023-03-14T00:08:36;3.67;;;1.83;;
59016;SDS011;44800;55.600;38.134;2023-03-14T00:11:06;4.60;;;1.58;;
59016;SDS011;44800;55.600;38.134;2023-03-14T00:13:35;3.15;;;1.67;;
59016;SDS011;44800;55.600;38.134;2023-03-14T00:16:03;2.28;;;1.45;;
59016;SDS011;44800;55.600;38.134;2023-03-14T00:18:33;6.55;;;2.60;;
59016;SDS011;44800;55.600;38.134;2023-03-14T00:21:02;9.45;;;2.47;;
59016;SDS011;44800;55.600;38.134;2023-03-14T00:23:32;1.17;;;1.08;;
59016;SDS011;44800;55.600;38.134;2023-03-14T00:26:03;1.58;;;1.48;;
59016;SDS011;44800;55.600;38.134;2023-03-14T00:28:33;4.95;;;1.73;;
59016;SDS011;44800;55.600;38.134;2023-03-14T00:31:02;2.72;;;0.90;;
59016;SDS011;44800;55.600;38.134;2023-03-14T00:33:31;3.10;;;1.45;;
59016;SDS011;44800;55.600;38.134;2023-03-14T00:36:00;1.85;;;1.33;;
59016;SDS011;44800;55.600;38.134;2023-03-14T00:38:30;3.08;;;1.67;;
59016;SDS011;44800;55.600;38.134;2023-03-14T00:41:03;6.63;;;2.17;;
59016;SDS011;44800;55.600;38.134;2023-03-14T00:43:32;3.25;;;1.88;;
59016;SDS011;44800;55.600;38.134;2023-03-14T00:46:00;3.05;;;1.67;;
59016;SDS011;44800;55.600;38.134;2023-03-14T00:48:29;4.13;;;1.58;;
59016;SDS011;44800;55.600;38.134;2023-03-14T00:50:58;3.47;;;2.25;;
59016;SDS011;44800;55.600;38.134;2023-03-14T00:53:26;2.67;;;1.20;;
59016;SDS011;44800;55.600;38.134;2023-03-14T00:55:54;2.63;;;1.67;;
59016;SDS011;44800;55.600;38.134;2023-03-14T00:58:24;2.13;;;0.95;;
59016;SDS011;44800;55.600;38.134;2023-03-14T01:00:54;3.58;;;2.00;;
59016;SDS011;44800;55.600;38.134;2023-03-14T01:03:22;3.72;;;1.33;;
59016;SDS011;44800;55.600;38.134;2023-03-14T01:05:51;1.58;;;0.98;;
59016;SDS011;44800;55.600;38.134;2023-03-14T01:08:19;1.25;;;0.95;;
59016;SDS011;44800;55.600;38.134;2023-03-14T01:10:47;6.85;;;2.13;;
59016;SDS011;44800;55.600;38.134;2023-03-14T01:13:16;4.35;;;1.80;;
59016;SDS011;44800;55.600;38.134;2023-03-14T01:15:45;3.10;;;2.10;;
59016;SDS011;44800;55.600;38.134;2023-03-14T01:18:14;3.45;;;1.50;;
59016;SDS011;44800;55.600;38.134;2023-03-14T01:20:42;4.60;;;1.48;;
59016;SDS011;44800;55.600;38.134;2023-03-14T01:23:10;5.43;;;2.30;;
59016;SDS011;44800;55.600;38.134;2023-03-14T01:25:40;2.15;;;1.88;;
59016;SDS011;44800;55.600;38.134;2023-03-14T01:28:08;3.90;;;1.88;;
59016;SDS011;44800;55.600;38.134;2023-03-14T01:30:37;3.00;;;1.35;;
59016;SDS011;44800;55.600;38.134;2023-03-14T01:33:08;1.70;;;0.95;;
59016;SDS011;44800;55.600;38.134;2023-03-14T01:35:37;1.80;;;1.13;;
59016;SDS011;44800;55.600;38.134;2023-03-14T01:38:06;1.67;;;1.08;;
59016;SDS011;44800;55.600;38.134;2023-03-14T01:40:40;2.97;;;1.40;;
59016;SDS011;44800;55.600;38.134;2023-03-14T01:43:13;1.25;;;0.60;;
59016;SDS011;44800;55.600;38.134;2023-03-14T01:48:52;2.60;;;1.05;;
59016;SDS011;44800;55.600;38.134;2023-03-14T01:51:25;1.40;;;1.30;;
59016;SDS011;44800;55.600;38.134;2023-03-14T01:53:58;1.67;;;1.45;;
59016;SDS011;44800;55.600;38.134;2023-03-14T01:56:30;5.30;;;1.88;;
59016;SDS011;44800;55.600;38.134;2023-03-14T01:58:59;2.33;;;1.55;;
59016;SDS011;44800;55.600;38.134;2023-03-14T02:01:29;4.78;;;1.55;;
59016;SDS011;44800;55.600;38.134;2023-03-14T02:04:00;4.45;;;0.95;;
59016;SDS011;44800;55.600;38.134;2023-03-14T02:06:31;2.08;;;1.55;;
59016;SDS011;44800;55.600;38.134;2023-03-14T02:09:03;3.30;;;0.93;;
59016;SDS011;44800;55.600;38.134;2023-03-14T02:11:32;1.60;;;1.23;;
59016;SDS011;44800;55.600;38.134;2023-03-14T02:14:00;1.50;;;1.10;;
59016;SDS011;44800;55.600;38.134;2023-03-14T02:16:30;3.72;;;2.05;;
59016;SDS011;44800;55.600;38.134;2023-03-14T02:19:00;6.07;;;2.70;;
59016;SDS011;44800;55.600;38.134;2023-03-14T02:21:31;4.55;;;1.30;;
59016;SDS011;44800;55.600;38.134;2023-03-14T02:24:07;4.40;;;2.30;;
59016;SDS011;44800;55.600;38.134;2023-03-14T02:26:41;5.32;;;2.60;;
59016;SDS011;44800;55.600;38.134;2023-03-14T02:29:13;2.88;;;1.55;;
59016;SDS011;44800;55.600;38.134;2023-03-14T02:31:41;5.03;;;1.85;;
59016;SDS011;44800;55.600;38.134;2023-03-14T02:34:10;2.58;;;1.35;;
59016;SDS011;44800;55.600;38.134;2023-03-14T02:36:39;3.72;;;2.03;;
59016;SDS011;44800;55.600;38.134;2023-03-14T02:39:08;4.90;;;2.22;;
59016;SDS011;44800;55.600;38.134;2023-03-14T02:41:40;6.80;;;2.42;;
59016;SDS011;44800;55.600;38.134;2023-03-14T02:44:09;3.55;;;2.10;;
59016;SDS011;44800;55.600;38.134;2023-03-14T02:46:38;5.72;;;1.98;;
59016;SDS011;44800;55.600;38.134;2023-03-14T02:49:07;4.20;;;2.78;;
59016;SDS011;44800;55.600;38.134;2023-03-14T02:51:36;3.97;;;2.40;;
59016;SDS011;44800;55.600;38.134;2023-03-14T02:54:06;4.55;;;2.30;;
59016;SDS011;44800;55.600;38.134;2023-03-14T02:56:34;10.50;;;3.33;;
59016;SDS011;44800;55.600;38.134;2023-03-14T02:59:03;3.83;;;2.45;;
59016;SDS011;44800;55.600;38.134;2023-03-14T03:01:32;2.15;;;1.85;;
59016;SDS011;44800;55.600;38.134;2023-03-14T03:04:02;5.25;;;2.15;;
59016;SDS011;44800;55.600;38.134;2023-03-14T03:06:32;8.57;;;2.35;;
59016;SDS011;44800;55.600;38.134;2023-03-14T03:09:01;4.05;;;2.05;;
59016;SDS011;44800;55.600;38.134;2023-03-14T03:11:29;3.65;;;2.33;;
59016;SDS011;44800;55.600;38.134;2023-03-14T03:13:58;1.40;;;1.15;;
59016;SDS011;44800;55.600;38.134;2023-03-14T03:16:27;4.68;;;2.35;;
59016;SDS011;44800;55.600;38.134;2023-03-14T03:18:55;6.15;;;2.22;;
59016;SDS011;44800;55.600;38.134;2023-03-14T03:21:25;4.57;;;2.67;;
59016;SDS011;44800;55.600;38.134;2023-03-14T03:23:53;3.15;;;2.25;;
59016;SDS011;44800;55.600;38.134;2023-03-14T03:26:21;3.38;;;1.80;;
59016;SDS011;44800;55.600;38.134;2023-03-14T03:28:50;5.35;;;2.30;;
59016;SDS011;44800;55.600;38.134;2023-03-14T03:31:18;4.07;;;2.33;;
59016;SDS011;44800;55.600;38.134;2023-03-14T03:33:47;2.67;;;2.35;;
59016;SDS011;44800;55.600;38.134;2023-03-14T03:36:15;3.33;;;2.70;;
59016;SDS011;44800;55.600;38.134;2023-03-14T03:38:51;4.82;;;2.28;;
59016;SDS011;44800;55.600;38.134;2023-03-14T03:41:19;5.15;;;3.70;;
59016;SDS011;44800;55.600;38.134;2023-03-14T03:43:48;3.92;;;2.47;;
59016;SDS011;44800;55.600;38.134;2023-03-14T03:46:16;6.18;;;3.40;;
59016;SDS011;44800;55.600;38.134;2023-03-14T03:48:45;5.15;;;2.75;;
59016;SDS011;44800;55.600;38.134;2023-03-14T03:51:13;6.80;;;3.83;;
59016;SDS011;44800;55.600;38.134;2023-03-14T03:53:42;6.15;;;1.85;;
59016;SDS011;44800;55.600;38.134;2023-03-14T03:56:12;3.05;;;2.72;;
59016;SDS011;44800;55.600;38.134;2023-03-14T03:58:40;8.13;;;2.38;;
59016;SDS011;44800;55.600;38.134;2023-03-14T04:01:09;4.15;;;2.67;;
59016;SDS011;44800;55.600;38.134;2023-03-14T04:03:38;6.50;;;3.35;;
59016;SDS011;44800;55.600;38.134;2023-03-14T04:06:08;2.28;;;1.48;;
59016;SDS011;44800;55.600;38.134;2023-03-14T04:08:38;2.97;;;1.92;;
59016;SDS011;44800;55.600;38.134;2023-03-14T04:11:07;3.60;;;2.72;;
59016;SDS011;44800;55.600;38.134;2023-03-14T04:13:37;5.57;;;2.30;;
59016;SDS011;44800;55.600;38.134;2023-03-14T04:16:44;3.10;;;2.22;;
59016;SDS011;44800;55.600;38.134;2023-03-14T04:19:44;2.70;;;1.67;;
59016;SDS011;44800;55.600;38.134;2023-03-14T04:22:13;6.75;;;2.90;;
59016;SDS011;44800;55.600;38.134;2023-03-14T04:24:41;4.55;;;1.90;;
59016;SDS011;44800;55.600;38.134;2023-03-14T04:27:09;1.88;;;1.27;;
59016;SDS011;44800;55.600;38.134;2023-03-14T04:29:37;3.35;;;2.78;;
59016;SDS011;44800;55.600;38.134;2023-03-14T04:32:05;2.92;;;2.42;;
59016;SDS011;44800;55.600;38.134;2023-03-14T04:34:33;3.45;;;2.30;;
59016;SDS011;44800;55.600;38.134;2023-03-14T04:37:02;2.60;;;2.22;;
59016;SDS011;44800;55.600;38.134;2023-03-14T04:39:30;4.50;;;2.47;;
59016;SDS011;44800;55.600;38.134;2023-03-14T04:41:59;5.45;;;3.03;;
59016;SDS011;44800;55.600;38.134;2023-03-14T04:44:27;2.13;;;1.52;;
59016;SDS011;44800;55.600;38.134;2023-03-14T04:46:55;4.55;;;1.77;;
59016;SDS011;44800;55.600;38.134;2023-03-14T04:49:24;8.07;;;3.42;;
59016;SDS011;44800;55.600;38.134;2023-03-14T04:51:52;5.53;;;3.22;;
59016;SDS011;44800;55.600;38.134;2023-03-14T04:54:21;4.45;;;1.90;;
59016;SDS011;44800;55.600;38.134;2023-03-14T04:56:49;4.03;;;2.47;;
59016;SDS011;44800;55.600;38.134;2023-03-14T04:59:17;5.63;;;2.80;;
59016;SDS011;44800;55.600;38.134;2023-03-14T05:01:45;4.22;;;2.30;;
59016;SDS011;44800;55.600;38.134;2023-03-14T05:04:15;6.93;;;3.03;;
59016;SDS011;44800;55.600;38.134;2023-03-14T05:06:43;4.00;;;2.17;;
59016;SDS011;44800;55.600;38.134;2023-03-14T05:09:11;6.55;;;3.67;;
59016;SDS011;44800;55.600;38.134;2023-03-14T05:11:40;4.13;;;1.95;;
59016;SDS011;44800;55.600;38.134;2023-03-14T05:14:09;5.40;;;2.33;;
59016;SDS011;44800;55.600;38.134;2023-03-14T05:16:37;4.07;;;1.98;;
59016;SDS011;44800;55.600;38.134;2023-03-14T05:19:05;5.72;;;2.47;;
59016;SDS011;44800;55.600;38.134;2023-03-14T05:21:34;4.93;;;2.90;;
59016;SDS011;44800;55.600;38.134;2023-03-14T05:24:02;2.50;;;1.63;;
59016;SDS011;44800;55.600;38.134;2023-03-14T05:26:29;3.97;;;1.70;;
59016;SDS011;44800;55.600;38.134;2023-03-14T05:28:59;4.70;;;2.88;;
59016;SDS011;44800;55.600;38.134;2023-03-14T05:31:27;4.78;;;3.50;;
59016;SDS011;44800;55.600;38.134;2023-03-14T05:33:55;4.75;;;2.17;;
59016;SDS011;44800;55.600;38.134;2023-03-14T05:36:23;2.72;;;1.90;;
59016;SDS011;44800;55.600;38.134;2023-03-14T05:38:51;4.53;;;2.17;;
59016;SDS011;44800;55.600;38.134;2023-03-14T05:41:19;6.78;;;2.35;;
59016;SDS011;44800;55.600;38.134;2023-03-14T05:43:47;4.25;;;2.88;;
59016;SDS011;44800;55.600;38.134;2023-03-14T05:46:17;6.65;;;3.10;;
59016;SDS011;44800;55.600;38.134;2023-03-14T05:48:46;5.78;;;2.17;;
59016;SDS011;44800;55.600;38.134;2023-03-14T05:51:14;11.27;;;2.22;;
59016;SDS011;44800;55.600;38.134;2023-03-14T05:53:42;1.65;;;1.55;;
59016;SDS011;44800;55.600;38.134;2023-03-14T05:56:10;4.57;;;2.33;;
59016;SDS011;44800;55.600;38.134;2023-03-14T05:58:38;3.97;;;2.17;;
59016;SDS011;44800;55.600;38.134;2023-03-14T06:01:06;9.40;;;2.63;;
59016;SDS011;44800;55.600;38.134;2023-03-14T06:03:36;2.38;;;1.98;;
59016;SDS011;44800;55.600;38.134;2023-03-14T06:06:04;2.85;;;1.92;;
59016;SDS011;44800;55.600;38.134;2023-03-14T06:08:32;6.45;;;3.08;;
59016;SDS011;44800;55.600;38.134;2023-03-14T06:11:02;3.72;;;2.15;;
59016;SDS011;44800;55.600;38.134;2023-03-14T06:13:30;5.50;;;2.53;;
59016;SDS011;44800;55.600;38.134;2023-03-14T06:15:58;4.55;;;2.63;;
59016;SDS011;44800;55.600;38.134;2023-03-14T06:18:27;3.70;;;1.80;;
59016;SDS011;44800;55.600;38.134;2023-03-14T06:20:56;10.18;;;2.80;;
59016;SDS011;44800;55.600;38.134;2023-03-14T06:23:24;5.22;;;2.58;;
59016;SDS011;44800;55.600;38.134;2023-03-14T06:25:53;7.07;;;3.25;;
59016;SDS011;44800;55.600;38.134;2023-03-14T06:28:21;3.25;;;2.28;;
59016;SDS011;44800;55.600;38.134;2023-03-14T06:30:51;4.57;;;2.60;;
59016;SDS011;44800;55.600;38.134;2023-03-14T06:33:19;10.77;;;3.38;;
59016;SDS011;44800;55.600;38.134;2023-03-14T06:35:47;7.72;;;3.65;;
59016;SDS011;44800;55.600;38.134;2023-03-14T06:38:17;11.20;;;4.18;;
59016;SDS011;44800;55.600;38.134;2023-03-14T06:40:45;4.55;;;2.35;;
59016;SDS011;44800;55.600;38.134;2023-03-14T06:43:13;5.05;;;2.63;;
59016;SDS011;44800;55.600;38.134;2023-03-14T06:45:41;5.22;;;2.60;;
59016;SDS011;44800;55.600;38.134;2023-03-14T06:48:09;9.55;;;3.65;;
59016;SDS011;44800;55.600;38.134;2023-03-14T06:50:38;6.85;;;2.97;;
59016;SDS011;44800;55.600;38.134;2023-03-14T06:53:06;7.13;;;2.80;;
59016;SDS011;44800;55.600;38.134;2023-03-14T06:55:35;3.85;;;2.08;;
59016;SDS011;44800;55.600;38.134;2023-03-14T06:58:03;3.55;;;1.92;;
59016;SDS011;44800;55.600;38.134;2023-03-14T07:00:33;2.72;;;1.90;;
59016;SDS011;44800;55.600;38.134;2023-03-14T07:03:01;4.80;;;2.05;;
59016;SDS011;44800;55.600;38.134;2023-03-14T07:05:29;4.90;;;2.38;;
59016;SDS011;44800;55.600;38.134;2023-03-14T07:07:57;6.38;;;3.05;;
59016;SDS011;44800;55.600;38.134;2023-03-14T07:10:25;6.90;;;3.47;;
59016;SDS011;44800;55.600;38.134;2023-03-14T07:12:55;5.70;;;2.15;;
59016;SDS011;44800;55.600;38.134;2023-03-14T07:15:23;5.13;;;3.53;;
59016;SDS011;44800;55.600;38.134;2023-03-14T07:17:51;3.80;;;2.03;;
59016;SDS011;44800;55.600;38.134;2023-03-14T07:20:19;6.05;;;2.42;;
59016;SDS011;44800;55.600;38.134;2023-03-14T07:22:48;8.57;;;3.42;;
59016;SDS011;44800;55.600;38.134;2023-03-14T07:25:16;5.90;;;2.97;;
59016;SDS011;44800;55.600;38.134;2023-03-14T07:27:45;1.92;;;1.25;;
59016;SDS011;44800;55.600;38.134;2023-03-14T07:30:16;3.72;;;2.25;;
59016;SDS011;44800;55.600;38.134;2023-03-14T07:32:44;4.45;;;3.72;;
59016;SDS011;44800;55.600;38.134;2023-03-14T07:35:12;5.15;;;2.55;;
59016;SDS011;44800;55.600;38.134;2023-03-14T07:37:40;3.70;;;2.00;;
59016;SDS011;44800;55.600;38.134;2023-03-14T07:40:08;3.10;;;2.03;;
59016;SDS011;44800;55.600;38.134;2023-03-14T07:42:38;7.05;;;2.95;;
59016;SDS011;44800;55.600;38.134;2023-03-14T07:45:07;6.53;;;3.60;;
59016;SDS011;44800;55.600;38.134;2023-03-14T07:47:36;4.22;;;2.22;;
59016;SDS011;44800;55.600;38.134;2023-03-14T07:50:05;3.13;;;2.30;;
59016;SDS011;44800;55.600;38.134;2023-03-14T07:52:33;4.40;;;2.30;;
59016;SDS011;44800;55.600;38.134;2023-03-14T07:55:02;3.90;;;2.17;;
59016;SDS011;44800;55.600;38.134;2023-03-14T07:57:30;3.95;;;2.60;;
59016;SDS011;44800;55.600;38.134;2023-03-14T07:59:58;6.38;;;3.00;;
59016;SDS011;44800;55.600;38.134;2023-03-14T08:02:26;7.20;;;3.13;;
59016;SDS011;44800;55.600;38.134;2023-03-14T08:04:55;7.28;;;3.33;;
59016;SDS011;44800;55.600;38.134;2023-03-14T08:07:23;9.90;;;3.55;;
59016;SDS011;44800;55.600;38.134;2023-03-14T08:09:51;3.28;;;1.92;;
59016;SDS011;44800;55.600;38.134;2023-03-14T08:12:20;5.55;;;2.92;;
59016;SDS011;44800;55.600;38.134;2023-03-14T08:14:48;2.17;;;1.83;;
59016;SDS011;44800;55.600;38.134;2023-03-14T08:17:16;6.40;;;2.92;;
59016;SDS011;44800;55.600;38.134;2023-03-14T08:19:44;5.00;;;2.92;;
59016;SDS011;44800;55.600;38.134;2023-03-14T08:22:13;4.53;;;1.98;;
59016;SDS011;44800;55.600;38.134;2023-03-14T08:24:45;2.95;;;1.80;;
59016;SDS011;44800;55.600;38.134;2023-03-14T08:27:14;6.68;;;2.55;;
59016;SDS011;44800;55.600;38.134;2023-03-14T08:29:42;6.28;;;2.15;;
59016;SDS011;44800;55.600;38.134;2023-03-14T08:32:10;4.10;;;1.75;;
59016;SDS011;44800;55.600;38.134;2023-03-14T08:34:38;2.03;;;1.50;;
59016;SDS011;44800;55.600;38.134;2023-03-14T08:37:06;4.65;;;3.28;;
59016;SDS011;44800;55.600;38.134;2023-03-14T08:39:52;7.65;;;3.75;;
59016;SDS011;44800;55.600;38.134;2023-03-14T08:42:20;6.45;;;2.28;;
59016;SDS011;44800;55.600;38.134;2023-03-14T08:44:48;6.13;;;4.60;;
59016;SDS011;44800;55.600;38.134;2023-03-14T08:47:16;6.93;;;2.08;;
59016;SDS011;44800;55.600;38.134;2023-03-14T08:49:44;3.20;;;1.55;;
59016;SDS011;44800;55.600;38.134;2023-03-14T08:52:12;7.00;;;3.22;;
59016;SDS011;44800;55.600;38.134;2023-03-14T08:54:43;5.90;;;2.53;;
59016;SDS011;44800;55.600;38.134;2023-03-14T08:57:12;3.85;;;2.78;;
59016;SDS011;44800;55.600;38.134;2023-03-14T08:59:41;4.05;;;2.53;;
59016;SDS011;44800;55.600;38.134;2023-03-14T09:02:09;11.48;;;4.63;;
59016;SDS011;44800;55.600;38.134;2023-03-14T09:04:39;11.52;;;3.38;;
59016;SDS011;44800;55.600;38.134;2023-03-14T09:07:07;5.15;;;2.75;;
59016;SDS011;44800;55.600;38.134;2023-03-14T09:09:35;8.40;;;3.58;;
59016;SDS011;44800;55.600;38.134;2023-03-14T09:12:05;6.38;;;3.50;;
59016;SDS011;44800;55.600;38.134;2023-03-14T09:14:34;7.25;;;3.45;;
59016;SDS011;44800;55.600;38.134;2023-03-14T09:17:02;4.80;;;2.60;;
59016;SDS011;44800;55.600;38.134;2023-03-14T09:19:32;7.28;;;3.13;;
59016;SDS011;44800;55.600;38.134;2023-03-14T09:22:00;6.85;;;3.75;;
59016;SDS011;44800;55.600;38.134;2023-03-14T09:24:28;8.13;;;3.55;;
59016;SDS011;44800;55.600;38.134;2023-03-14T09:26:57;4.50;;;2.83;;
59016;SDS011;44800;55.600;38.134;2023-03-14T09:29:25;5.40;;;3.35;;
59016;SDS011;44800;55.600;38.134;2023-03-14T09:31:55;3.05;;;1.58;;
59016;SDS011;44800;55.600;38.134;2023-03-14T09:34:23;6.65;;;2.95;;
59016;SDS011;44800;55.600;38.134;2023-03-14T09:36:52;5.13;;;2.58;;
59016;SDS011;44800;55.600;38.134;2023-03-14T09:39:20;6.53;;;3.25;;
59016;SDS011;44800;55.600;38.134;2023-03-14T09:41:48;7.57;;;4.00;;
59016;SDS011;44800;55.600;38.134;2023-03-14T09:44:18;4.63;;;3.25;;
59016;SDS011;44800;55.600;38.134;2023-03-14T09:46:50;5.85;;;4.22;;
59016;SDS011;44800;55.600;38.134;2023-03-14T09:49:21;8.00;;;3.78;;
59016;SDS011;44800;55.600;38.134;2023-03-14T09:51:50;5.38;;;3.28;;
59016;SDS011;44800;55.600;38.134;2023-03-14T09:54:24;5.07;;;2.75;;
59016;SDS011;44800;55.600;38.134;2023-03-14T09:56:54;5.88;;;2.65;;
59016;SDS011;44800;55.600;38.134;2023-03-14T09:59:22;7.60;;;3.85;;
59016;SDS011;44800;55.600;38.134;2023-03-14T10:01:51;9.73;;;2.60;;
59016;SDS011;44800;55.600;38.134;2023-03-14T10:04:22;6.82;;;3.05;;
59016;SDS011;44800;55.600;38.134;2023-03-14T10:06:50;9.98;;;3.17;;
59016;SDS011;44800;55.600;38.134;2023-03-14T10:09:19;4.53;;;3.15;;
59016;SDS011;44800;55.600;38.134;2023-03-14T10:11:55;10.40;;;4.53;;
59016;SDS011;44800;55.600;38.134;2023-03-14T10:14:31;9.15;;;3.33;;
59016;SDS011;44800;55.600;38.134;2023-03-14T10:17:08;4.15;;;2.72;;
59016;SDS011;44800;55.600;38.134;2023-03-14T10:19:38;4.88;;;2.85;;
59016;SDS011;44800;55.600;38.134;2023-03-14T10:22:18;6.25;;;3.33;;
59016;SDS011;44800;55.600;38.134;2023-03-14T10:24:46;7.85;;;4.15;;
59016;SDS011;44800;55.600;38.134;2023-03-14T10:27:18;6.90;;;3.92;;
59016;SDS011;44800;55.600;38.134;2023-03-14T10:29:51;4.13;;;2.50;;
59016;SDS011;44800;55.600;38.134;2023-03-14T10:32:20;8.85;;;4.07;;
59016;SDS011;44800;55.600;38.134;2023-03-14T10:40:02;6.63;;;3.30;;
59016;SDS011;44800;55.600;38.134;2023-03-14T10:42:32;11.57;;;4.97;;
59016;SDS011;44800;55.600;38.134;2023-03-14T10:45:02;7.38;;;3.60;;
59016;SDS011;44800;55.600;38.134;2023-03-14T10:47:31;8.63;;;3.58;;
59016;SDS011;44800;55.600;38.134;2023-03-14T10:50:18;6.47;;;3.60;;
59016;SDS011;44800;55.600;38.134;2023-03-14T10:52:49;5.63;;;3.22;;
59016;SDS011;44800;55.600;38.134;2023-03-14T10:55:32;8.82;;;4.20;;
59016;SDS011;44800;55.600;38.134;2023-03-14T10:58:16;7.80;;;4.30;;
59016;SDS011;44800;55.600;38.134;2023-03-14T11:00:45;8.65;;;3.97;;
59016;SDS011;44800;55.600;38.134;2023-03-14T11:03:16;9.38;;;4.93;;
59016;SDS011;44800;55.600;38.134;2023-03-14T11:05:46;9.88;;;4.85;;
59016;SDS011;44800;55.600;38.134;2023-03-14T11:08:18;6.93;;;4.05;;
59016;SDS011;44800;55.600;38.134;2023-03-14T11:10:50;9.32;;;5.93;;
59016;SDS011;44800;55.600;38.134;2023-03-14T11:13:21;9.57;;;4.28;;
59016;SDS011;44800;55.600;38.134;2023-03-14T11:15:53;6.60;;;3.40;;
59016;SDS011;44800;55.600;38.134;2023-03-14T11:21:11;8.52;;;3.90;;
59016;SDS011;44800;55.600;38.134;2023-03-14T11:23:41;8.30;;;4.30;;
59016;SDS011;44800;55.600;38.134;2023-03-14T11:26:20;10.95;;;4.75;;
59016;SDS011;44800;55.600;38.134;2023-03-14T11:28:54;6.47;;;3.05;;
59016;SDS011;44800;55.600;38.134;2023-03-14T11:31:25;8.13;;;4.55;;
59016;SDS011;44800;55.600;38.134;2023-03-14T11:33:56;11.15;;;3.10;;
59016;SDS011;44800;55.600;38.134;2023-03-14T11:36:27;9.05;;;4.85;;
59016;SDS011;44800;55.600;38.134;2023-03-14T11:38:56;9.77;;;5.82;;
59016;SDS011;44800;55.600;38.134;2023-03-14T11:41:28;8.73;;;4.15;;
59016;SDS011;44800;55.600;38.134;2023-03-14T11:43:59;7.63;;;4.70;;
59016;SDS011;44800;55.600;38.134;2023-03-14T11:46:28;13.15;;;5.07;;
59016;SDS011;44800;55.600;38.134;2023-03-14T11:48:59;8.57;;;4.07;;
59016;SDS011;44800;55.600;38.134;2023-03-14T11:51:29;11.10;;;4.18;;
59016;SDS011;44800;55.600;38.134;2023-03-14T11:54:01;8.45;;;3.95;;
59016;SDS011;44800;55.600;38.134;2023-03-14T11:56:33;16.02;;;5.95;;
59016;SDS011;44800;55.600;38.134;2023-03-14T11:59:03;11.73;;;5.57;;
59016;SDS011;44800;55.600;38.134;2023-03-14T12:01:45;5.88;;;4.68;;
59016;SDS011;44800;55.600;38.134;2023-03-14T12:04:19;8.65;;;5.43;;
59016;SDS011;44800;55.600;38.134;2023-03-14T12:06:49;11.13;;;5.28;;
59016;SDS011;44800;55.600;38.134;2023-03-14T12:09:18;8.18;;;4.28;;
59016;SDS011;44800;55.600;38.134;2023-03-14T12:11:49;10.65;;;5.63;;
59016;SDS011;44800;55.600;38.134;2023-03-14T12:14:20;12.27;;;4.22;;
59016;SDS011;44800;55.600;38.134;2023-03-14T12:16:49;11.25;;;4.93;;
59016;SDS011;44800;55.600;38.134;2023-03-14T12:19:27;10.10;;;5.43;;
59016;SDS011;44800;55.600;38.134;2023-03-14T12:21:57;12.98;;;5.65;;
59016;SDS011;44800;55.600;38.134;2023-03-14T12:24:26;8.27;;;4.47;;
59016;SDS011;44800;55.600;38.134;2023-03-14T12:27:00;8.48;;;5.15;;
59016;SDS011;44800;55.600;38.134;2023-03-14T12:29:29;6.25;;;4.50;;
59016;SDS011;44800;55.600;38.134;2023-03-14T12:32:07;11.60;;;5.10;;
59016;SDS011;44800;55.600;38.134;2023-03-14T12:34:38;8.80;;;4.57;;
59016;SDS011;44800;55.600;38.134;2023-03-14T12:37:12;11.15;;;5.32;;
59016;SDS011;44800;55.600;38.134;2023-03-14T12:39:46;10.20;;;5.50;;
59016;SDS011;44800;55.600;38.134;2023-03-14T12:42:18;8.18;;;4.55;;
59016;SDS011;44800;55.600;38.134;2023-03-14T12:44:52;9.35;;;4.47;;
59016;SDS011;44800;55.600;38.134;2023-03-14T12:50:13;9.18;;;5.03;;
59016;SDS011;44800;55.600;38.134;2023-03-14T12:52:43;11.07;;;5.93;;
59016;SDS011;44800;55.600;38.134;2023-03-14T12:55:15;10.55;;;4.25;;
59016;SDS011;44800;55.600;38.134;2023-03-14T12:57:49;9.60;;;5.35;;
59016;SDS011;44800;55.600;38.134;2023-03-14T13:00:22;12.13;;;4.07;;
59016;SDS011;44800;55.600;38.134;2023-03-14T13:02:51;10.85;;;6.07;;
59016;SDS011;44800;55.600;38.134;2023-03-14T13:05:19;10.25;;;4.60;;
59016;SDS011;44800;55.600;38.134;2023-03-14T13:08:02;10.32;;;5.28;;
59016;SDS011;44800;55.600;38.134;2023-03-14T13:10:31;12.98;;;5.75;;
59016;SDS011;44800;55.600;38.134;2023-03-14T13:13:16;9.57;;;4.50;;
59016;SDS011;44800;55.600;38.134;2023-03-14T13:15:46;6.97;;;4.68;;
59016;SDS011;44800;55.600;38.134;2023-03-14T13:18:18;14.13;;;5.55;;
59016;SDS011;44800;55.600;38.134;2023-03-14T13:20:51;11.10;;;4.20;;
59016;SDS011;44800;55.600;38.134;2023-03-14T13:23:21;12.63;;;6.63;;
59016;SDS011;44800;55.600;38.134;2023-03-14T13:25:50;12.75;;;5.78;;
59016;SDS011;44800;55.600;38.134;2023-03-14T13:28:19;11.63;;;5.72;;
59016;SDS011;44800;55.600;38.134;2023-03-14T13:30:48;12.57;;;6.25;;
59016;SDS011;44800;55.600;38.134;2023-03-14T13:33:18;12.15;;;5.30;;
59016;SDS011;44800;55.600;38.134;2023-03-14T13:35:47;14.70;;;5.63;;
59016;SDS011;44800;55.600;38.134;2023-03-14T13:38:18;9.75;;;5.15;;
59016;SDS011;44800;55.600;38.134;2023-03-14T13:40:47;17.17;;;7.38;;
59016;SDS011;44800;55.600;38.134;2023-03-14T13:43:21;14.38;;;6.57;;
59016;SDS011;44800;55.600;38.134;2023-03-14T13:45:52;11.27;;;6.55;;
59016;SDS011;44800;55.600;38.134;2023-03-14T13:48:22;15.20;;;7.05;;
59016;SDS011;44800;55.600;38.134;2023-03-14T13:50:54;14.45;;;7.20;;
59016;SDS011;44800;55.600;38.134;2023-03-14T13:53:22;17.25;;;6.57;;
59016;SDS011;44800;55.600;38.134;2023-03-14T13:55:51;15.27;;;6.00;;
59016;SDS011;44800;55.600;38.134;2023-03-14T13:58:21;8.63;;;5.32;;
59016;SDS011;44800;55.600;38.134;2023-03-14T14:00:56;14.85;;;8.40;;
59016;SDS011;44800;55.600;38.134;2023-03-14T14:03:26;10.65;;;6.85;;
59016;SDS011;44800;55.600;38.134;2023-03-14T14:05:55;13.45;;;5.35;;
59016;SDS011;44800;55.600;38.134;2023-03-14T14:08:26;8.05;;;3.83;;
59016;SDS011;44800;55.600;38.134;2023-03-14T14:10:56;13.45;;;6.32;;
59016;SDS011;44800;55.600;38.134;2023-03-14T14:13:27;17.88;;;5.28;;
59016;SDS011;44800;55.600;38.134;2023-03-14T14:15:57;11.25;;;4.80;;
59016;SDS011;44800;55.600;38.134;2023-03-14T14:18:27;19.00;;;6.85;;
59016;SDS011;44800;55.600;38.134;2023-03-14T14:20:56;7.90;;;4.85;;
59016;SDS011;44800;55.600;38.134;2023-03-14T14:23:25;14.48;;;7.00;;
59016;SDS011;44800;55.600;38.134;2023-03-14T14:25:57;14.18;;;4.85;;
59016;SDS011;44800;55.600;38.134;2023-03-14T14:28:27;18.80;;;7.82;;
59016;SDS011;44800;55.600;38.134;2023-03-14T14:30:59;14.30;;;6.13;;
59016;SDS011;44800;55.600;38.134;2023-03-14T14:33:28;12.52;;;5.72;;
59016;SDS011;44800;55.600;38.134;2023-03-14T14:35:56;7.88;;;4.20;;
59016;SDS011;44800;55.600;38.134;2023-03-14T14:38:25;10.65;;;5.40;;
59016;SDS011;44800;55.600;38.134;2023-03-14T14:40:54;15.75;;;5.38;;
59016;SDS011;44800;55.600;38.134;2023-03-14T14:43:24;9.50;;;4.65;;
59016;SDS011;44800;55.600;38.134;2023-03-14T14:45:55;9.73;;;5.28;;
59016;SDS011;44800;55.600;38.134;2023-03-14T14:48:25;7.18;;;5.03;;
59016;SDS011;44800;55.600;38.134;2023-03-14T14:50:58;12.35;;;5.95;;
59016;SDS011;44800;55.600;38.134;2023-03-14T14:53:28;11.65;;;6.00;;
59016;SDS011;44800;55.600;38.134;2023-03-14T14:55:57;13.85;;;5.93;;
59016;SDS011;44800;55.600;38.134;2023-03-14T14:58:26;16.20;;;6.85;;
59016;SDS011;44800;55.600;38.134;2023-03-14T15:00:57;21.70;;;7.50;;